Kezhma, Russia
Current Conditions -  °F | °C
As of 4:30 PM on Wednesday 22 Oct 2014 (Local Time) from UIBB Reporting Station
Broken Clouds Broken Clouds  
Wind Chill: 19°   Ceiling: 10000
Heat Index: 30°   Visibility: 6mi
Dew Point: 19°   Wind: 16mph
Humidity: 64%   Direction: 260°W
Pressure: 29.91"   Gusts: NA
Location:  58.98°N, 101.2°E
Report Text: UIBB 220930Z 26007MPS 9999 SCT033CB BKN100 M01/M07 Q1013 NOSIGRMK QFE717/0956 30210260
Loading
Personal Weather Stations






























Interactive Weather Map
Tropical Storm Tracking
New forecast layout! Learn more

10-Day Weather Forecast

Advertisements
Track Severe Weather on mobile